Port Saunders, Canada
Current Conditions -  °F | °C
As of 10:00 PM on Saturday 25 Oct 2014 (Local Time) from CWDH Reporting Station
Scattered Clouds Scattered Clouds  
Wind Chill: 31°   Ceiling: Unl
Heat Index: 39°   Visibility: 9mi
Dew Point: 30°   Wind: 15mph
Humidity: 70%   Direction: 60°ENE
Pressure: 29.63"   Gusts: NA
Location:  50.65°N, 57.27°W
Report Text: CWDH 260000Z AUTO 06013KT 9SM SCT023 04/M01 A2963 RMK SLP035 PK WND 06019/// T00411009 10047 20040 60014 70033 WSI/SWOB
Loading
Personal Weather Stations






























Interactive Weather Map
Tropical Storm Tracking
New forecast layout! Learn more

10-Day Weather Forecast

Advertisements
Track Severe Weather on mobile